Yankton, SD (57078)

6:15 AM CDT on April 25, 2015 (GMT -0500)
NEDOR | | Change Station
CLOSE
Current Station
Personal Weather Station
Location: Saint Helena, NE
Elevation: 1297 ft
Nearby Weather Stations

Elev 1297 ft 42.83 °N, 97.40 °W | Updated 33 minutes ago

Overcast
Overcast
48 °F
Feels Like 43 °F
N
13
Wind Variable Wind from ENE
Gusts 0.0 mph

Today
High -- | Low -- °F
--% Chance of Precip.
Yesterday
High -- | Low -- °F
Precip. -- in
6:32 AM 8:23 PM
Waxing Crescent, 45% visible
Pressure 29.59 in
Visibility 8.0 miles
Clouds Scattered Clouds 1000 ft
Overcast 2200 ft
Windchill 43 °F
Dew Point 48 °F
Humidity 100%
Rainfall in
Snow Depth Not available.
UV 0 out of 12
Pollen 9.20 out of 12
Air Quality Not available.
Flu Activity Sporadic
METAR KYKN 251055Z AUTO 08015G22KT 8SM SCT010 OVC022 09/06 A2959 RMK AO1

More Conditions Fewer Conditions

Pressure 29.59 in
Visibility 8.0 miles
Clouds Scattered Clouds 1000 ft
Overcast 2200 ft
Windchill 43 °F
Dew Point 48 °F
Humidity 100%
Rainfall in
Snow Depth Not available.
UV 0 out of 12
Pollen 9.20 out of 12
Air Quality Not available.
Flu Activity Sporadic
METAR KYKN 251055Z AUTO 08015G22KT 8SM SCT010 OVC022 09/06 A2959 RMK AO1

More Conditions Fewer Conditions

10-Day Weather Forecast

Almanac

Astronomy

Apr. 25, 2015 Rise Set
Actual Time
Civil Twilight
Nautical Twilight
Astronomical Twilight
Moon
Length of Visible Light
Length of Day
Tomorrow will be .
, % of the Moon is Illuminated

Today's Extremes

State Highs State Lows

Community

WunderPhotos

Upload Photos

1,816,638 photos uploaded!

WunderBlogs® & News

Nearby

Air Quality

  Air Quality AQ Index Pollutant
Not available.

Snow Depth

Station Depth Elevation

Earthquake Activity

City Distance Mag. Time & Date
Minimum magnitude displayed is 2.5.

Coastal Water Temperatures

Place Temperature

Stations

Nearby Weather Stations

Station Location Temp. Windchill Dew Point Humidity Wind Precip. Elev Updated Type